sensor_id;sensor_type;location;lat;lon;timestamp;P1;durP1;ratioP1;P2;durP2;ratioP2
3689;SDS011;1861;50.240;8.596;2024-03-17T00:02:05;1.37;;;1.17;;
3689;SDS011;1861;50.240;8.596;2024-03-17T00:04:32;3.60;;;0.90;;
3689;SDS011;1861;50.240;8.596;2024-03-17T00:07:00;2.07;;;1.10;;
3689;SDS011;1861;50.240;8.596;2024-03-17T00:09:27;3.40;;;1.10;;
3689;SDS011;1861;50.240;8.596;2024-03-17T00:11:54;1.40;;;1.13;;
3689;SDS011;1861;50.240;8.596;2024-03-17T00:14:22;2.50;;;0.80;;
3689;SDS011;1861;50.240;8.596;2024-03-17T00:16:48;1.50;;;1.30;;
3689;SDS011;1861;50.240;8.596;2024-03-17T00:19:15;2.70;;;1.27;;
3689;SDS011;1861;50.240;8.596;2024-03-17T00:21:42;1.67;;;1.07;;
3689;SDS011;1861;50.240;8.596;2024-03-17T00:24:11;1.40;;;1.00;;
3689;SDS011;1861;50.240;8.596;2024-03-17T00:26:39;1.67;;;0.90;;
3689;SDS011;1861;50.240;8.596;2024-03-17T00:29:06;1.20;;;1.10;;
3689;SDS011;1861;50.240;8.596;2024-03-17T00:31:32;2.70;;;1.83;;
3689;SDS011;1861;50.240;8.596;2024-03-17T00:34:00;2.47;;;1.17;;
3689;SDS011;1861;50.240;8.596;2024-03-17T00:36:26;1.43;;;1.10;;
3689;SDS011;1861;50.240;8.596;2024-03-17T00:38:53;1.50;;;1.00;;
3689;SDS011;1861;50.240;8.596;2024-03-17T00:41:21;3.80;;;1.27;;
3689;SDS011;1861;50.240;8.596;2024-03-17T00:43:48;1.53;;;1.20;;
3689;SDS011;1861;50.240;8.596;2024-03-17T00:46:15;1.53;;;0.90;;
3689;SDS011;1861;50.240;8.596;2024-03-17T00:48:43;1.17;;;1.07;;
3689;SDS011;1861;50.240;8.596;2024-03-17T00:51:13;3.10;;;1.57;;
3689;SDS011;1861;50.240;8.596;2024-03-17T00:53:40;1.30;;;1.20;;
3689;SDS011;1861;50.240;8.596;2024-03-17T00:56:06;2.40;;;1.80;;
3689;SDS011;1861;50.240;8.596;2024-03-17T00:58:35;4.77;;;1.77;;
3689;SDS011;1861;50.240;8.596;2024-03-17T01:01:02;2.57;;;1.80;;
3689;SDS011;1861;50.240;8.596;2024-03-17T01:03:29;1.80;;;1.70;;
3689;SDS011;1861;50.240;8.596;2024-03-17T01:05:55;4.33;;;2.40;;
3689;SDS011;1861;50.240;8.596;2024-03-17T01:08:22;4.57;;;1.97;;
3689;SDS011;1861;50.240;8.596;2024-03-17T01:10:49;8.77;;;3.03;;
3689;SDS011;1861;50.240;8.596;2024-03-17T01:13:16;3.70;;;2.27;;
3689;SDS011;1861;50.240;8.596;2024-03-17T01:15:44;4.20;;;2.37;;
3689;SDS011;1861;50.240;8.596;2024-03-17T01:18:12;2.57;;;1.70;;
3689;SDS011;1861;50.240;8.596;2024-03-17T01:20:38;1.57;;;1.47;;
3689;SDS011;1861;50.240;8.596;2024-03-17T01:23:05;2.00;;;1.43;;
3689;SDS011;1861;50.240;8.596;2024-03-17T01:25:33;6.00;;;1.50;;
3689;SDS011;1861;50.240;8.596;2024-03-17T01:28:05;2.07;;;1.40;;
3689;SDS011;1861;50.240;8.596;2024-03-17T01:30:31;4.00;;;1.17;;
3689;SDS011;1861;50.240;8.596;2024-03-17T01:33:01;0.90;;;0.90;;
3689;SDS011;1861;50.240;8.596;2024-03-17T01:35:30;1.33;;;1.00;;
3689;SDS011;1861;50.240;8.596;2024-03-17T01:37:57;1.57;;;0.90;;
3689;SDS011;1861;50.240;8.596;2024-03-17T01:40:23;1.20;;;1.10;;
3689;SDS011;1861;50.240;8.596;2024-03-17T01:42:50;2.00;;;0.90;;
3689;SDS011;1861;50.240;8.596;2024-03-17T01:45:18;1.60;;;1.10;;
3689;SDS011;1861;50.240;8.596;2024-03-17T01:47:55;1.50;;;1.00;;
3689;SDS011;1861;50.240;8.596;2024-03-17T01:50:25;5.03;;;0.90;;
3689;SDS011;1861;50.240;8.596;2024-03-17T01:52:54;0.90;;;0.90;;
3689;SDS011;1861;50.240;8.596;2024-03-17T01:55:25;3.63;;;1.40;;
3689;SDS011;1861;50.240;8.596;2024-03-17T01:57:52;1.57;;;1.00;;
3689;SDS011;1861;50.240;8.596;2024-03-17T02:00:20;2.30;;;1.20;;
3689;SDS011;1861;50.240;8.596;2024-03-17T02:02:47;1.00;;;0.90;;
3689;SDS011;1861;50.240;8.596;2024-03-17T02:05:14;0.80;;;0.80;;
3689;SDS011;1861;50.240;8.596;2024-03-17T02:07:42;2.33;;;1.00;;
3689;SDS011;1861;50.240;8.596;2024-03-17T02:10:09;1.00;;;0.90;;
3689;SDS011;1861;50.240;8.596;2024-03-17T02:12:35;2.00;;;1.10;;
3689;SDS011;1861;50.240;8.596;2024-03-17T02:15:03;1.23;;;0.90;;
3689;SDS011;1861;50.240;8.596;2024-03-17T02:17:31;2.23;;;1.10;;
3689;SDS011;1861;50.240;8.596;2024-03-17T02:19:59;1.80;;;1.20;;
3689;SDS011;1861;50.240;8.596;2024-03-17T02:22:27;0.80;;;0.80;;
3689;SDS011;1861;50.240;8.596;2024-03-17T02:24:54;1.10;;;0.80;;
3689;SDS011;1861;50.240;8.596;2024-03-17T02:27:20;1.10;;;0.97;;
3689;SDS011;1861;50.240;8.596;2024-03-17T02:29:48;2.00;;;1.00;;
3689;SDS011;1861;50.240;8.596;2024-03-17T02:32:14;1.67;;;0.90;;
3689;SDS011;1861;50.240;8.596;2024-03-17T02:34:41;2.90;;;1.20;;
3689;SDS011;1861;50.240;8.596;2024-03-17T02:37:10;2.40;;;1.10;;
3689;SDS011;1861;50.240;8.596;2024-03-17T02:39:38;3.17;;;1.07;;
3689;SDS011;1861;50.240;8.596;2024-03-17T02:42:05;1.10;;;1.00;;
3689;SDS011;1861;50.240;8.596;2024-03-17T02:44:35;4.20;;;0.97;;
3689;SDS011;1861;50.240;8.596;2024-03-17T02:47:04;0.90;;;0.90;;
3689;SDS011;1861;50.240;8.596;2024-03-17T02:49:34;1.00;;;0.80;;
3689;SDS011;1861;50.240;8.596;2024-03-17T02:52:02;3.07;;;1.10;;
3689;SDS011;1861;50.240;8.596;2024-03-17T02:54:31;1.27;;;1.17;;
3689;SDS011;1861;50.240;8.596;2024-03-17T02:56:59;1.67;;;1.00;;
3689;SDS011;1861;50.240;8.596;2024-03-17T02:59:27;1.00;;;0.87;;
3689;SDS011;1861;50.240;8.596;2024-03-17T03:01:54;1.93;;;1.00;;
3689;SDS011;1861;50.240;8.596;2024-03-17T03:04:21;2.50;;;1.10;;
3689;SDS011;1861;50.240;8.596;2024-03-17T03:06:48;1.53;;;0.90;;
3689;SDS011;1861;50.240;8.596;2024-03-17T03:09:15;1.77;;;1.00;;
3689;SDS011;1861;50.240;8.596;2024-03-17T03:11:48;1.90;;;1.20;;
3689;SDS011;1861;50.240;8.596;2024-03-17T03:14:16;0.90;;;0.90;;
3689;SDS011;1861;50.240;8.596;2024-03-17T03:16:43;1.30;;;1.20;;
3689;SDS011;1861;50.240;8.596;2024-03-17T03:19:11;0.93;;;0.83;;
3689;SDS011;1861;50.240;8.596;2024-03-17T03:21:38;2.70;;;1.20;;
3689;SDS011;1861;50.240;8.596;2024-03-17T03:24:05;0.80;;;0.80;;
3689;SDS011;1861;50.240;8.596;2024-03-17T03:26:33;2.70;;;0.80;;
3689;SDS011;1861;50.240;8.596;2024-03-17T03:29:00;1.23;;;1.00;;
3689;SDS011;1861;50.240;8.596;2024-03-17T03:31:28;1.30;;;1.03;;
3689;SDS011;1861;50.240;8.596;2024-03-17T03:33:55;5.00;;;0.90;;
3689;SDS011;1861;50.240;8.596;2024-03-17T03:36:23;3.80;;;0.90;;
3689;SDS011;1861;50.240;8.596;2024-03-17T03:38:51;1.97;;;0.90;;
3689;SDS011;1861;50.240;8.596;2024-03-17T03:41:19;1.47;;;0.90;;
3689;SDS011;1861;50.240;8.596;2024-03-17T03:43:46;5.83;;;1.30;;
3689;SDS011;1861;50.240;8.596;2024-03-17T03:46:13;2.03;;;0.87;;
3689;SDS011;1861;50.240;8.596;2024-03-17T03:48:42;1.30;;;0.87;;
3689;SDS011;1861;50.240;8.596;2024-03-17T03:51:09;0.90;;;0.80;;
3689;SDS011;1861;50.240;8.596;2024-03-17T03:53:37;0.90;;;0.90;;
3689;SDS011;1861;50.240;8.596;2024-03-17T03:56:05;1.50;;;1.00;;
3689;SDS011;1861;50.240;8.596;2024-03-17T03:58:33;1.60;;;1.10;;
3689;SDS011;1861;50.240;8.596;2024-03-17T04:01:00;1.57;;;0.90;;
3689;SDS011;1861;50.240;8.596;2024-03-17T04:03:31;2.20;;;0.70;;
3689;SDS011;1861;50.240;8.596;2024-03-17T04:06:04;2.30;;;0.80;;
3689;SDS011;1861;50.240;8.596;2024-03-17T04:08:32;1.00;;;0.80;;
3689;SDS011;1861;50.240;8.596;2024-03-17T04:10:59;1.67;;;0.83;;
3689;SDS011;1861;50.240;8.596;2024-03-17T04:13:27;6.43;;;0.87;;
3689;SDS011;1861;50.240;8.596;2024-03-17T04:15:55;1.13;;;1.00;;
3689;SDS011;1861;50.240;8.596;2024-03-17T04:18:24;0.90;;;0.90;;
3689;SDS011;1861;50.240;8.596;2024-03-17T04:20:52;1.90;;;1.23;;
3689;SDS011;1861;50.240;8.596;2024-03-17T04:23:21;3.50;;;1.47;;
3689;SDS011;1861;50.240;8.596;2024-03-17T04:25:49;1.50;;;1.10;;
3689;SDS011;1861;50.240;8.596;2024-03-17T04:28:18;1.23;;;1.10;;
3689;SDS011;1861;50.240;8.596;2024-03-17T04:30:45;2.17;;;1.20;;
3689;SDS011;1861;50.240;8.596;2024-03-17T04:33:13;2.07;;;1.10;;
3689;SDS011;1861;50.240;8.596;2024-03-17T04:35:42;2.30;;;1.00;;
3689;SDS011;1861;50.240;8.596;2024-03-17T04:38:09;1.70;;;1.03;;
3689;SDS011;1861;50.240;8.596;2024-03-17T04:40:40;0.83;;;0.80;;
3689;SDS011;1861;50.240;8.596;2024-03-17T04:43:08;1.10;;;1.00;;
3689;SDS011;1861;50.240;8.596;2024-03-17T04:45:35;1.23;;;0.90;;
3689;SDS011;1861;50.240;8.596;2024-03-17T04:48:03;1.43;;;1.17;;
3689;SDS011;1861;50.240;8.596;2024-03-17T04:50:31;2.90;;;1.10;;
3689;SDS011;1861;50.240;8.596;2024-03-17T04:52:58;1.47;;;1.10;;
3689;SDS011;1861;50.240;8.596;2024-03-17T04:55:25;3.37;;;0.97;;
3689;SDS011;1861;50.240;8.596;2024-03-17T04:57:54;3.60;;;1.07;;
3689;SDS011;1861;50.240;8.596;2024-03-17T05:00:21;1.50;;;1.27;;
3689;SDS011;1861;50.240;8.596;2024-03-17T05:02:48;1.20;;;1.10;;
3689;SDS011;1861;50.240;8.596;2024-03-17T05:05:15;1.33;;;1.23;;
3689;SDS011;1861;50.240;8.596;2024-03-17T05:07:43;1.57;;;1.20;;
3689;SDS011;1861;50.240;8.596;2024-03-17T05:10:10;1.10;;;1.00;;
3689;SDS011;1861;50.240;8.596;2024-03-17T05:12:37;1.57;;;1.20;;
3689;SDS011;1861;50.240;8.596;2024-03-17T05:15:06;1.00;;;0.80;;
3689;SDS011;1861;50.240;8.596;2024-03-17T05:17:34;2.40;;;1.10;;
3689;SDS011;1861;50.240;8.596;2024-03-17T05:20:01;1.27;;;1.00;;
3689;SDS011;1861;50.240;8.596;2024-03-17T05:22:31;1.03;;;0.93;;
3689;SDS011;1861;50.240;8.596;2024-03-17T05:24:58;1.30;;;1.20;;
3689;SDS011;1861;50.240;8.596;2024-03-17T05:27:25;1.10;;;1.00;;
3689;SDS011;1861;50.240;8.596;2024-03-17T05:29:52;1.20;;;1.00;;
3689;SDS011;1861;50.240;8.596;2024-03-17T05:32:21;1.10;;;1.00;;
3689;SDS011;1861;50.240;8.596;2024-03-17T05:34:48;1.80;;;1.00;;
3689;SDS011;1861;50.240;8.596;2024-03-17T05:37:15;1.10;;;1.00;;
3689;SDS011;1861;50.240;8.596;2024-03-17T05:39:42;3.13;;;1.20;;
3689;SDS011;1861;50.240;8.596;2024-03-17T05:42:09;2.13;;;1.07;;
3689;SDS011;1861;50.240;8.596;2024-03-17T05:44:37;3.10;;;1.30;;
3689;SDS011;1861;50.240;8.596;2024-03-17T05:47:16;1.20;;;1.10;;
3689;SDS011;1861;50.240;8.596;2024-03-17T05:49:45;4.13;;;1.20;;
3689;SDS011;1861;50.240;8.596;2024-03-17T05:52:12;2.50;;;1.03;;
3689;SDS011;1861;50.240;8.596;2024-03-17T05:54:39;1.70;;;1.33;;
3689;SDS011;1861;50.240;8.596;2024-03-17T05:57:06;9.80;;;2.23;;
3689;SDS011;1861;50.240;8.596;2024-03-17T05:59:34;1.10;;;0.90;;
3689;SDS011;1861;50.240;8.596;2024-03-17T06:02:02;1.53;;;1.23;;
3689;SDS011;1861;50.240;8.596;2024-03-17T06:04:29;1.57;;;1.00;;
3689;SDS011;1861;50.240;8.596;2024-03-17T06:06:57;1.13;;;1.07;;
3689;SDS011;1861;50.240;8.596;2024-03-17T06:09:26;2.83;;;1.20;;
3689;SDS011;1861;50.240;8.596;2024-03-17T06:11:53;1.93;;;1.57;;
3689;SDS011;1861;50.240;8.596;2024-03-17T06:14:20;5.17;;;1.63;;
3689;SDS011;1861;50.240;8.596;2024-03-17T06:16:47;1.67;;;1.43;;
3689;SDS011;1861;50.240;8.596;2024-03-17T06:19:14;2.70;;;1.30;;
3689;SDS011;1861;50.240;8.596;2024-03-17T06:21:41;1.97;;;1.03;;
3689;SDS011;1861;50.240;8.596;2024-03-17T06:24:10;2.37;;;1.60;;
3689;SDS011;1861;50.240;8.596;2024-03-17T06:26:37;1.40;;;1.23;;
3689;SDS011;1861;50.240;8.596;2024-03-17T06:29:04;1.83;;;1.47;;
3689;SDS011;1861;50.240;8.596;2024-03-17T06:31:31;1.40;;;1.30;;
3689;SDS011;1861;50.240;8.596;2024-03-17T06:33:58;3.27;;;1.00;;
3689;SDS011;1861;50.240;8.596;2024-03-17T06:36:26;2.47;;;1.30;;
3689;SDS011;1861;50.240;8.596;2024-03-17T06:38:53;1.63;;;1.13;;
3689;SDS011;1861;50.240;8.596;2024-03-17T06:41:22;1.20;;;1.10;;
3689;SDS011;1861;50.240;8.596;2024-03-17T06:43:49;3.07;;;1.37;;
3689;SDS011;1861;50.240;8.596;2024-03-17T06:46:17;1.33;;;1.23;;
3689;SDS011;1861;50.240;8.596;2024-03-17T06:48:44;9.93;;;1.37;;
3689;SDS011;1861;50.240;8.596;2024-03-17T06:51:12;1.57;;;1.40;;
3689;SDS011;1861;50.240;8.596;2024-03-17T06:53:39;1.20;;;1.10;;
3689;SDS011;1861;50.240;8.596;2024-03-17T06:56:06;2.80;;;1.40;;
3689;SDS011;1861;50.240;8.596;2024-03-17T06:58:36;5.97;;;1.43;;
3689;SDS011;1861;50.240;8.596;2024-03-17T07:01:03;3.33;;;1.90;;
3689;SDS011;1861;50.240;8.596;2024-03-17T07:03:31;3.50;;;1.80;;
3689;SDS011;1861;50.240;8.596;2024-03-17T07:05:59;6.93;;;2.53;;
3689;SDS011;1861;50.240;8.596;2024-03-17T07:08:29;2.20;;;1.80;;
3689;SDS011;1861;50.240;8.596;2024-03-17T07:10:57;1.93;;;1.80;;
3689;SDS011;1861;50.240;8.596;2024-03-17T07:13:25;4.13;;;2.30;;
3689;SDS011;1861;50.240;8.596;2024-03-17T07:15:55;5.73;;;2.60;;
3689;SDS011;1861;50.240;8.596;2024-03-17T07:18:24;3.67;;;2.80;;
3689;SDS011;1861;50.240;8.596;2024-03-17T07:20:52;2.93;;;2.63;;
3689;SDS011;1861;50.240;8.596;2024-03-17T07:23:19;3.60;;;3.00;;
3689;SDS011;1861;50.240;8.596;2024-03-17T07:25:53;3.23;;;2.90;;
3689;SDS011;1861;50.240;8.596;2024-03-17T07:28:21;4.63;;;3.50;;
3689;SDS011;1861;50.240;8.596;2024-03-17T07:30:49;4.57;;;2.60;;
3689;SDS011;1861;50.240;8.596;2024-03-17T07:33:19;3.43;;;3.10;;
3689;SDS011;1861;50.240;8.596;2024-03-17T07:35:48;5.73;;;3.37;;
3689;SDS011;1861;50.240;8.596;2024-03-17T07:38:15;3.67;;;3.10;;
3689;SDS011;1861;50.240;8.596;2024-03-17T07:40:42;4.27;;;3.47;;
3689;SDS011;1861;50.240;8.596;2024-03-17T07:43:10;5.27;;;3.63;;
3689;SDS011;1861;50.240;8.596;2024-03-17T07:45:37;6.73;;;3.67;;
3689;SDS011;1861;50.240;8.596;2024-03-17T07:48:05;3.33;;;3.03;;
3689;SDS011;1861;50.240;8.596;2024-03-17T07:50:34;4.27;;;3.47;;
3689;SDS011;1861;50.240;8.596;2024-03-17T07:53:01;4.13;;;3.33;;
3689;SDS011;1861;50.240;8.596;2024-03-17T07:55:29;4.63;;;3.00;;
3689;SDS011;1861;50.240;8.596;2024-03-17T07:57:56;7.00;;;4.33;;
3689;SDS011;1861;50.240;8.596;2024-03-17T08:00:24;4.77;;;3.20;;
3689;SDS011;1861;50.240;8.596;2024-03-17T08:02:51;3.40;;;2.93;;
3689;SDS011;1861;50.240;8.596;2024-03-17T08:05:19;5.03;;;3.30;;
3689;SDS011;1861;50.240;8.596;2024-03-17T08:07:49;4.17;;;3.23;;
3689;SDS011;1861;50.240;8.596;2024-03-17T08:10:16;5.00;;;3.57;;
3689;SDS011;1861;50.240;8.596;2024-03-17T08:12:44;5.47;;;3.10;;
3689;SDS011;1861;50.240;8.596;2024-03-17T08:15:11;6.73;;;3.03;;
3689;SDS011;1861;50.240;8.596;2024-03-17T08:17:39;2.80;;;2.60;;
3689;SDS011;1861;50.240;8.596;2024-03-17T08:20:07;3.03;;;2.70;;
3689;SDS011;1861;50.240;8.596;2024-03-17T08:22:34;3.33;;;2.60;;
3689;SDS011;1861;50.240;8.596;2024-03-17T08:25:03;2.83;;;2.50;;
3689;SDS011;1861;50.240;8.596;2024-03-17T08:27:31;3.70;;;2.00;;
3689;SDS011;1861;50.240;8.596;2024-03-17T08:29:58;3.57;;;2.40;;
3689;SDS011;1861;50.240;8.596;2024-03-17T08:32:25;2.17;;;1.97;;
3689;SDS011;1861;50.240;8.596;2024-03-17T08:34:53;2.60;;;2.30;;
3689;SDS011;1861;50.240;8.596;2024-03-17T08:37:20;2.00;;;1.67;;
3689;SDS011;1861;50.240;8.596;2024-03-17T08:39:51;8.43;;;2.40;;
3689;SDS011;1861;50.240;8.596;2024-03-17T08:42:20;3.47;;;2.40;;
3689;SDS011;1861;50.240;8.596;2024-03-17T08:44:47;2.83;;;2.13;;
3689;SDS011;1861;50.240;8.596;2024-03-17T08:47:14;3.23;;;2.13;;
3689;SDS011;1861;50.240;8.596;2024-03-17T08:49:41;2.90;;;2.10;;
3689;SDS011;1861;50.240;8.596;2024-03-17T08:52:08;2.43;;;2.23;;
3689;SDS011;1861;50.240;8.596;2024-03-17T08:54:36;6.37;;;2.70;;
3689;SDS011;1861;50.240;8.596;2024-03-17T08:57:03;2.83;;;2.53;;
3689;SDS011;1861;50.240;8.596;2024-03-17T08:59:32;6.97;;;2.40;;
3689;SDS011;1861;50.240;8.596;2024-03-17T09:01:59;2.13;;;2.03;;
3689;SDS011;1861;50.240;8.596;2024-03-17T09:04:27;4.07;;;2.10;;
3689;SDS011;1861;50.240;8.596;2024-03-17T09:06:54;3.43;;;2.53;;
3689;SDS011;1861;50.240;8.596;2024-03-17T09:09:22;2.07;;;1.50;;
3689;SDS011;1861;50.240;8.596;2024-03-17T09:11:50;2.80;;;2.10;;
3689;SDS011;1861;50.240;8.596;2024-03-17T09:14:17;5.70;;;2.77;;
3689;SDS011;1861;50.240;8.596;2024-03-17T09:16:45;1.90;;;1.70;;
3689;SDS011;1861;50.240;8.596;2024-03-17T09:19:14;2.70;;;1.90;;
3689;SDS011;1861;50.240;8.596;2024-03-17T09:21:41;2.13;;;1.83;;
3689;SDS011;1861;50.240;8.596;2024-03-17T09:24:10;1.90;;;1.80;;
3689;SDS011;1861;50.240;8.596;2024-03-17T09:26:37;3.80;;;2.03;;
3689;SDS011;1861;50.240;8.596;2024-03-17T09:29:05;4.10;;;2.57;;
3689;SDS011;1861;50.240;8.596;2024-03-17T09:31:33;3.50;;;1.80;;
3689;SDS011;1861;50.240;8.596;2024-03-17T09:34:02;2.60;;;2.20;;
3689;SDS011;1861;50.240;8.596;2024-03-17T09:36:30;2.20;;;2.00;;
3689;SDS011;1861;50.240;8.596;2024-03-17T09:38:57;4.50;;;2.17;;
3689;SDS011;1861;50.240;8.596;2024-03-17T09:41:26;2.57;;;2.20;;
3689;SDS011;1861;50.240;8.596;2024-03-17T09:43:55;6.20;;;2.33;;
3689;SDS011;1861;50.240;8.596;2024-03-17T09:46:23;2.73;;;2.53;;
3689;SDS011;1861;50.240;8.596;2024-03-17T09:48:52;26.00;;;8.27;;
3689;SDS011;1861;50.240;8.596;2024-03-17T09:51:22;11.90;;;4.50;;
3689;SDS011;1861;50.240;8.596;2024-03-17T09:53:51;8.70;;;2.67;;
3689;SDS011;1861;50.240;8.596;2024-03-17T09:56:19;3.83;;;2.73;;
3689;SDS011;1861;50.240;8.596;2024-03-17T09:58:47;2.43;;;2.20;;
3689;SDS011;1861;50.240;8.596;2024-03-17T10:01:16;3.70;;;2.90;;
3689;SDS011;1861;50.240;8.596;2024-03-17T10:03:44;4.90;;;2.70;;
3689;SDS011;1861;50.240;8.596;2024-03-17T10:06:17;4.23;;;2.47;;
3689;SDS011;1861;50.240;8.596;2024-03-17T10:08:48;3.27;;;2.33;;
3689;SDS011;1861;50.240;8.596;2024-03-17T10:11:17;3.77;;;2.30;;
3689;SDS011;1861;50.240;8.596;2024-03-17T10:13:46;3.83;;;2.47;;
3689;SDS011;1861;50.240;8.596;2024-03-17T10:16:25;2.37;;;2.00;;
3689;SDS011;1861;50.240;8.596;2024-03-17T10:19:05;4.03;;;2.33;;
3689;SDS011;1861;50.240;8.596;2024-03-17T10:21:33;3.67;;;2.20;;
3689;SDS011;1861;50.240;8.596;2024-03-17T10:24:06;2.80;;;2.10;;
3689;SDS011;1861;50.240;8.596;2024-03-17T10:26:35;3.67;;;2.63;;
3689;SDS011;1861;50.240;8.596;2024-03-17T10:29:04;2.70;;;2.17;;
3689;SDS011;1861;50.240;8.596;2024-03-17T10:31:41;3.87;;;1.90;;
3689;SDS011;1861;50.240;8.596;2024-03-17T10:34:09;2.30;;;1.73;;
3689;SDS011;1861;50.240;8.596;2024-03-17T10:36:42;3.03;;;2.17;;
3689;SDS011;1861;50.240;8.596;2024-03-17T10:39:17;2.37;;;2.13;;
3689;SDS011;1861;50.240;8.596;2024-03-17T10:41:56;3.23;;;1.83;;
3689;SDS011;1861;50.240;8.596;2024-03-17T10:44:25;2.97;;;2.00;;
3689;SDS011;1861;50.240;8.596;2024-03-17T10:46:54;4.00;;;2.47;;
3689;SDS011;1861;50.240;8.596;2024-03-17T10:49:23;2.70;;;1.80;;
3689;SDS011;1861;50.240;8.596;2024-03-17T10:51:57;1.60;;;1.50;;
3689;SDS011;1861;50.240;8.596;2024-03-17T10:54:27;5.37;;;2.10;;
3689;SDS011;1861;50.240;8.596;2024-03-17T10:56:55;12.70;;;4.20;;
3689;SDS011;1861;50.240;8.596;2024-03-17T10:59:25;3.87;;;2.40;;
3689;SDS011;1861;50.240;8.596;2024-03-17T11:02:03;4.73;;;2.20;;
3689;SDS011;1861;50.240;8.596;2024-03-17T11:04:36;4.83;;;2.40;;
3689;SDS011;1861;50.240;8.596;2024-03-17T11:07:03;2.37;;;2.17;;
3689;SDS011;1861;50.240;8.596;2024-03-17T11:09:34;3.03;;;2.27;;
3689;SDS011;1861;50.240;8.596;2024-03-17T11:12:01;4.13;;;2.17;;
3689;SDS011;1861;50.240;8.596;2024-03-17T11:14:28;5.77;;;3.00;;
3689;SDS011;1861;50.240;8.596;2024-03-17T11:16:55;2.80;;;2.10;;
3689;SDS011;1861;50.240;8.596;2024-03-17T11:19:24;3.67;;;2.30;;
3689;SDS011;1861;50.240;8.596;2024-03-17T11:21:52;2.47;;;2.27;;
3689;SDS011;1861;50.240;8.596;2024-03-17T11:24:22;2.10;;;1.90;;
3689;SDS011;1861;50.240;8.596;2024-03-17T11:26:52;5.40;;;2.17;;
3689;SDS011;1861;50.240;8.596;2024-03-17T11:29:29;4.73;;;2.87;;
3689;SDS011;1861;50.240;8.596;2024-03-17T11:31:58;4.40;;;1.93;;
3689;SDS011;1861;50.240;8.596;2024-03-17T11:34:26;27.30;;;7.93;;
3689;SDS011;1861;50.240;8.596;2024-03-17T11:36:56;4.30;;;2.50;;
3689;SDS011;1861;50.240;8.596;2024-03-17T11:42:25;4.00;;;2.10;;
3689;SDS011;1861;50.240;8.596;2024-03-17T11:44:56;2.97;;;2.30;;
3689;SDS011;1861;50.240;8.596;2024-03-17T11:47:32;2.73;;;2.20;;
3689;SDS011;1861;50.240;8.596;2024-03-17T11:50:04;2.57;;;2.30;;
3689;SDS011;1861;50.240;8.596;2024-03-17T11:52:35;2.93;;;2.63;;
3689;SDS011;1861;50.240;8.596;2024-03-17T11:55:03;3.20;;;2.40;;
3689;SDS011;1861;50.240;8.596;2024-03-17T11:57:31;3.23;;;1.93;;
3689;SDS011;1861;50.240;8.596;2024-03-17T11:59:58;5.30;;;3.27;;
3689;SDS011;1861;50.240;8.596;2024-03-17T12:02:25;2.67;;;2.40;;
3689;SDS011;1861;50.240;8.596;2024-03-17T12:04:53;3.03;;;2.37;;
3689;SDS011;1861;50.240;8.596;2024-03-17T12:07:22;5.60;;;2.80;;
3689;SDS011;1861;50.240;8.596;2024-03-17T12:09:51;7.53;;;2.77;;
3689;SDS011;1861;50.240;8.596;2024-03-17T12:12:19;2.60;;;2.40;;
3689;SDS011;1861;50.240;8.596;2024-03-17T12:14:50;2.70;;;2.50;;
3689;SDS011;1861;50.240;8.596;2024-03-17T12:17:19;7.13;;;2.47;;
3689;SDS011;1861;50.240;8.596;2024-03-17T12:19:48;7.40;;;2.57;;
3689;SDS011;1861;50.240;8.596;2024-03-17T12:22:15;3.43;;;2.33;;
3689;SDS011;1861;50.240;8.596;2024-03-17T12:24:47;5.10;;;2.77;;
3689;SDS011;1861;50.240;8.596;2024-03-17T12:27:16;3.13;;;2.37;;
3689;SDS011;1861;50.240;8.596;2024-03-17T12:29:44;5.37;;;2.73;;
3689;SDS011;1861;50.240;8.596;2024-03-17T12:32:13;2.67;;;2.27;;
3689;SDS011;1861;50.240;8.596;2024-03-17T12:34:42;3.07;;;2.73;;
3689;SDS011;1861;50.240;8.596;2024-03-17T12:37:11;32.50;;;10.53;;
3689;SDS011;1861;50.240;8.596;2024-03-17T12:39:43;32.50;;;10.60;;
3689;SDS011;1861;50.240;8.596;2024-03-17T12:42:10;3.67;;;2.43;;
3689;SDS011;1861;50.240;8.596;2024-03-17T12:44:39;3.13;;;2.10;;
3689;SDS011;1861;50.240;8.596;2024-03-17T12:47:14;3.17;;;2.83;;
3689;SDS011;1861;50.240;8.596;2024-03-17T12:49:46;4.43;;;2.60;;
3689;SDS011;1861;50.240;8.596;2024-03-17T12:52:20;3.47;;;3.17;;
3689;SDS011;1861;50.240;8.596;2024-03-17T12:57:51;4.60;;;3.17;;
3689;SDS011;1861;50.240;8.596;2024-03-17T13:00:37;3.97;;;3.03;;
3689;SDS011;1861;50.240;8.596;2024-03-17T13:03:06;3.83;;;2.87;;
3689;SDS011;1861;50.240;8.596;2024-03-17T13:05:34;9.17;;;3.50;;
3689;SDS011;1861;50.240;8.596;2024-03-17T13:08:02;4.40;;;2.70;;
3689;SDS011;1861;50.240;8.596;2024-03-17T13:10:30;7.90;;;3.80;;
3689;SDS011;1861;50.240;8.596;2024-03-17T13:12:58;3.80;;;3.17;;
3689;SDS011;1861;50.240;8.596;2024-03-17T13:15:27;5.47;;;3.20;;
3689;SDS011;1861;50.240;8.596;2024-03-17T13:17:56;5.50;;;3.50;;
3689;SDS011;1861;50.240;8.596;2024-03-17T13:20:25;3.60;;;2.60;;
3689;SDS011;1861;50.240;8.596;2024-03-17T13:22:53;4.27;;;3.07;;
3689;SDS011;1861;50.240;8.596;2024-03-17T13:25:21;4.13;;;3.20;;
3689;SDS011;1861;50.240;8.596;2024-03-17T13:27:51;4.13;;;3.00;;
3689;SDS011;1861;50.240;8.596;2024-03-17T13:30:20;5.67;;;3.13;;
3689;SDS011;1861;50.240;8.596;2024-03-17T13:32:49;7.33;;;2.77;;
3689;SDS011;1861;50.240;8.596;2024-03-17T13:35:21;5.30;;;2.67;;
3689;SDS011;1861;50.240;8.596;2024-03-17T13:37:52;4.80;;;2.83;;
3689;SDS011;1861;50.240;8.596;2024-03-17T13:40:21;5.10;;;3.57;;
3689;SDS011;1861;50.240;8.596;2024-03-17T13:42:49;10.40;;;3.00;;
3689;SDS011;1861;50.240;8.596;2024-03-17T13:45:18;3.80;;;2.87;;
3689;SDS011;1861;50.240;8.596;2024-03-17T13:47:47;4.10;;;3.03;;
3689;SDS011;1861;50.240;8.596;2024-03-17T13:50:16;6.53;;;3.67;;
3689;SDS011;1861;50.240;8.596;2024-03-17T13:52:43;8.83;;;3.60;;
3689;SDS011;1861;50.240;8.596;2024-03-17T13:55:13;4.43;;;3.67;;
3689;SDS011;1861;50.240;8.596;2024-03-17T13:57:42;6.17;;;3.37;;
3689;SDS011;1861;50.240;8.596;2024-03-17T14:00:11;7.50;;;4.30;;
3689;SDS011;1861;50.240;8.596;2024-03-17T14:02:41;7.33;;;4.30;;
3689;SDS011;1861;50.240;8.596;2024-03-17T14:05:10;6.43;;;4.03;;
3689;SDS011;1861;50.240;8.596;2024-03-17T14:07:39;8.07;;;4.57;;
3689;SDS011;1861;50.240;8.596;2024-03-17T14:10:07;6.43;;;3.90;;
3689;SDS011;1861;50.240;8.596;2024-03-17T14:12:37;5.50;;;3.97;;
3689;SDS011;1861;50.240;8.596;2024-03-17T14:15:06;7.00;;;3.60;;
3689;SDS011;1861;50.240;8.596;2024-03-17T14:17:36;10.27;;;4.70;;
3689;SDS011;1861;50.240;8.596;2024-03-17T14:20:03;9.03;;;3.97;;
3689;SDS011;1861;50.240;8.596;2024-03-17T14:22:34;6.20;;;4.10;;
3689;SDS011;1861;50.240;8.596;2024-03-17T14:25:02;16.40;;;4.03;;
3689;SDS011;1861;50.240;8.596;2024-03-17T14:27:31;13.80;;;6.17;;
3689;SDS011;1861;50.240;8.596;2024-03-17T14:30:00;13.00;;;5.70;;
3689;SDS011;1861;50.240;8.596;2024-03-17T14:32:29;6.47;;;4.17;;
3689;SDS011;1861;50.240;8.596;2024-03-17T14:34:56;8.33;;;4.07;;
3689;SDS011;1861;50.240;8.596;2024-03-17T14:37:23;10.60;;;4.03;;
3689;SDS011;1861;50.240;8.596;2024-03-17T14:39:51;9.93;;;3.90;;
3689;SDS011;1861;50.240;8.596;2024-03-17T14:42:18;5.43;;;3.87;;
3689;SDS011;1861;50.240;8.596;2024-03-17T14:44:47;6.20;;;3.77;;
3689;SDS011;1861;50.240;8.596;2024-03-17T14:47:15;7.97;;;4.53;;
3689;SDS011;1861;50.240;8.596;2024-03-17T14:49:43;6.60;;;4.10;;
3689;SDS011;1861;50.240;8.596;2024-03-17T14:52:11;8.93;;;4.13;;
3689;SDS011;1861;50.240;8.596;2024-03-17T14:54:38;5.90;;;4.50;;
3689;SDS011;1861;50.240;8.596;2024-03-17T14:57:05;8.80;;;3.97;;
3689;SDS011;1861;50.240;8.596;2024-03-17T14:59:32;10.97;;;4.27;;
3689;SDS011;1861;50.240;8.596;2024-03-17T15:02:00;7.23;;;4.70;;
3689;SDS011;1861;50.240;8.596;2024-03-17T15:04:28;6.17;;;4.47;;
3689;SDS011;1861;50.240;8.596;2024-03-17T15:06:56;10.20;;;3.87;;
3689;SDS011;1861;50.240;8.596;2024-03-17T15:09:23;6.53;;;4.13;;
3689;SDS011;1861;50.240;8.596;2024-03-17T15:11:50;10.37;;;4.67;;
3689;SDS011;1861;50.240;8.596;2024-03-17T15:14:17;6.40;;;4.10;;
3689;SDS011;1861;50.240;8.596;2024-03-17T15:16:45;7.27;;;4.33;;
3689;SDS011;1861;50.240;8.596;2024-03-17T15:19:12;6.40;;;4.30;;
3689;SDS011;1861;50.240;8.596;2024-03-17T15:21:41;8.57;;;4.87;;
3689;SDS011;1861;50.240;8.596;2024-03-17T15:24:08;7.80;;;4.70;;
3689;SDS011;1861;50.240;8.596;2024-03-17T15:26:35;6.30;;;4.50;;
3689;SDS011;1861;50.240;8.596;2024-03-17T15:29:03;6.07;;;4.27;;